sensor_id;sensor_type;location;lat;lon;timestamp;P1;durP1;ratioP1;P2;durP2;ratioP2
34072;SDS011;20346;52.702;16.886;2022-09-09T00:00:29;10.60;;;9.45;;
34072;SDS011;20346;52.702;16.886;2022-09-09T00:03:18;10.65;;;9.65;;
34072;SDS011;20346;52.702;16.886;2022-09-09T00:06:21;11.33;;;9.55;;
34072;SDS011;20346;52.702;16.886;2022-09-09T00:09:17;10.58;;;9.20;;
34072;SDS011;20346;52.702;16.886;2022-09-09T00:12:13;9.68;;;8.58;;
34072;SDS011;20346;52.702;16.886;2022-09-09T00:15:14;9.65;;;8.85;;
34072;SDS011;20346;52.702;16.886;2022-09-09T00:18:15;10.43;;;9.38;;
34072;SDS011;20346;52.702;16.886;2022-09-09T00:21:07;11.85;;;8.85;;
34072;SDS011;20346;52.702;16.886;2022-09-09T00:23:59;9.68;;;8.75;;
34072;SDS011;20346;52.702;16.886;2022-09-09T00:26:51;10.60;;;9.38;;
34072;SDS011;20346;52.702;16.886;2022-09-09T00:29:58;9.90;;;8.75;;
34072;SDS011;20346;52.702;16.886;2022-09-09T00:33:22;10.72;;;8.78;;
34072;SDS011;20346;52.702;16.886;2022-09-09T00:35:58;10.87;;;8.40;;
34072;SDS011;20346;52.702;16.886;2022-09-09T00:38:49;10.45;;;9.30;;
34072;SDS011;20346;52.702;16.886;2022-09-09T00:44:38;9.78;;;8.75;;
34072;SDS011;20346;52.702;16.886;2022-09-09T00:48:12;9.00;;;8.20;;
34072;SDS011;20346;52.702;16.886;2022-09-09T00:57:03;10.15;;;9.33;;
34072;SDS011;20346;52.702;16.886;2022-09-09T01:02:53;8.75;;;7.85;;
34072;SDS011;20346;52.702;16.886;2022-09-09T01:10:00;10.08;;;9.08;;
34072;SDS011;20346;52.702;16.886;2022-09-09T01:12:16;9.23;;;8.43;;
34072;SDS011;20346;52.702;16.886;2022-09-09T01:15:16;11.55;;;9.15;;
34072;SDS011;20346;52.702;16.886;2022-09-09T01:18:10;8.25;;;7.62;;
34072;SDS011;20346;52.702;16.886;2022-09-09T01:24:27;9.00;;;8.35;;
34072;SDS011;20346;52.702;16.886;2022-09-09T01:27:27;10.23;;;9.25;;
34072;SDS011;20346;52.702;16.886;2022-09-09T01:30:13;9.25;;;7.62;;
34072;SDS011;20346;52.702;16.886;2022-09-09T01:33:01;9.20;;;8.30;;
34072;SDS011;20346;52.702;16.886;2022-09-09T01:38:39;11.38;;;9.25;;
34072;SDS011;20346;52.702;16.886;2022-09-09T01:41:25;11.00;;;9.98;;
34072;SDS011;20346;52.702;16.886;2022-09-09T01:44:10;9.95;;;9.08;;
34072;SDS011;20346;52.702;16.886;2022-09-09T01:46:55;9.45;;;8.70;;
34072;SDS011;20346;52.702;16.886;2022-09-09T01:49:40;9.55;;;8.75;;
34072;SDS011;20346;52.702;16.886;2022-09-09T01:52:26;9.53;;;8.83;;
34072;SDS011;20346;52.702;16.886;2022-09-09T01:55:11;10.48;;;9.58;;
34072;SDS011;20346;52.702;16.886;2022-09-09T02:01:22;10.20;;;9.38;;
34072;SDS011;20346;52.702;16.886;2022-09-09T02:07:38;10.80;;;9.43;;
34072;SDS011;20346;52.702;16.886;2022-09-09T02:10:30;10.90;;;9.93;;
34072;SDS011;20346;52.702;16.886;2022-09-09T02:13:19;11.08;;;10.03;;
34072;SDS011;20346;52.702;16.886;2022-09-09T02:16:23;9.55;;;8.65;;
34072;SDS011;20346;52.702;16.886;2022-09-09T02:19:25;11.25;;;10.25;;
34072;SDS011;20346;52.702;16.886;2022-09-09T02:22:15;10.90;;;9.93;;
34072;SDS011;20346;52.702;16.886;2022-09-09T02:25:03;10.82;;;9.70;;
34072;SDS011;20346;52.702;16.886;2022-09-09T02:27:50;10.80;;;9.78;;
34072;SDS011;20346;52.702;16.886;2022-09-09T02:30:35;11.80;;;10.18;;
34072;SDS011;20346;52.702;16.886;2022-09-09T02:36:09;9.63;;;8.85;;
34072;SDS011;20346;52.702;16.886;2022-09-09T02:38:56;8.70;;;8.00;;
34072;SDS011;20346;52.702;16.886;2022-09-09T02:41:41;11.22;;;10.23;;
34072;SDS011;20346;52.702;16.886;2022-09-09T02:44:26;10.08;;;9.28;;
34072;SDS011;20346;52.702;16.886;2022-09-09T02:53:06;8.60;;;7.90;;
34072;SDS011;20346;52.702;16.886;2022-09-09T02:56:05;9.30;;;8.53;;
34072;SDS011;20346;52.702;16.886;2022-09-09T02:59:03;8.53;;;7.80;;
34072;SDS011;20346;52.702;16.886;2022-09-09T03:01:49;8.28;;;7.67;;
34072;SDS011;20346;52.702;16.886;2022-09-09T03:04:34;10.13;;;9.15;;
34072;SDS011;20346;52.702;16.886;2022-09-09T03:07:20;13.20;;;12.05;;
34072;SDS011;20346;52.702;16.886;2022-09-09T03:10:05;12.50;;;11.30;;
34072;SDS011;20346;52.702;16.886;2022-09-09T03:12:52;12.68;;;11.18;;
34072;SDS011;20346;52.702;16.886;2022-09-09T03:15:37;12.98;;;11.53;;
34072;SDS011;20346;52.702;16.886;2022-09-09T03:18:22;14.00;;;10.98;;
34072;SDS011;20346;52.702;16.886;2022-09-09T03:21:08;14.40;;;12.93;;
34072;SDS011;20346;52.702;16.886;2022-09-09T03:23:53;14.75;;;13.40;;
34072;SDS011;20346;52.702;16.886;2022-09-09T03:26:38;14.68;;;12.78;;
34072;SDS011;20346;52.702;16.886;2022-09-09T03:29:24;14.33;;;12.13;;
34072;SDS011;20346;52.702;16.886;2022-09-09T03:32:09;13.35;;;11.85;;
34072;SDS011;20346;52.702;16.886;2022-09-09T03:34:54;13.30;;;11.97;;
34072;SDS011;20346;52.702;16.886;2022-09-09T03:37:39;13.72;;;12.53;;
34072;SDS011;20346;52.702;16.886;2022-09-09T03:40:25;13.55;;;12.45;;
34072;SDS011;20346;52.702;16.886;2022-09-09T03:43:10;12.37;;;11.28;;
34072;SDS011;20346;52.702;16.886;2022-09-09T03:45:55;12.10;;;11.20;;
34072;SDS011;20346;52.702;16.886;2022-09-09T03:48:43;13.00;;;11.80;;
34072;SDS011;20346;52.702;16.886;2022-09-09T03:51:27;12.18;;;11.05;;
34072;SDS011;20346;52.702;16.886;2022-09-09T03:54:12;12.18;;;10.90;;
34072;SDS011;20346;52.702;16.886;2022-09-09T03:56:57;12.82;;;11.73;;
34072;SDS011;20346;52.702;16.886;2022-09-09T03:59:43;12.43;;;11.35;;
34072;SDS011;20346;52.702;16.886;2022-09-09T04:02:28;12.40;;;11.20;;
34072;SDS011;20346;52.702;16.886;2022-09-09T04:05:13;10.98;;;9.98;;
34072;SDS011;20346;52.702;16.886;2022-09-09T04:07:58;11.40;;;9.58;;
34072;SDS011;20346;52.702;16.886;2022-09-09T04:10:44;7.97;;;7.22;;
34072;SDS011;20346;52.702;16.886;2022-09-09T04:13:33;9.53;;;8.68;;
34072;SDS011;20346;52.702;16.886;2022-09-09T04:16:19;11.33;;;10.30;;
34072;SDS011;20346;52.702;16.886;2022-09-09T04:19:04;10.50;;;9.70;;
34072;SDS011;20346;52.702;16.886;2022-09-09T04:21:52;11.28;;;10.32;;
34072;SDS011;20346;52.702;16.886;2022-09-09T04:24:37;11.83;;;10.43;;
34072;SDS011;20346;52.702;16.886;2022-09-09T04:27:22;11.90;;;10.90;;
34072;SDS011;20346;52.702;16.886;2022-09-09T04:30:08;7.22;;;6.62;;
34072;SDS011;20346;52.702;16.886;2022-09-09T04:32:54;4.67;;;4.37;;
34072;SDS011;20346;52.702;16.886;2022-09-09T04:35:39;7.78;;;7.20;;
34072;SDS011;20346;52.702;16.886;2022-09-09T04:38:29;6.70;;;6.17;;
34072;SDS011;20346;52.702;16.886;2022-09-09T04:41:14;7.30;;;6.70;;
34072;SDS011;20346;52.702;16.886;2022-09-09T04:44:01;10.45;;;9.65;;
34072;SDS011;20346;52.702;16.886;2022-09-09T04:46:46;11.38;;;9.78;;
34072;SDS011;20346;52.702;16.886;2022-09-09T04:49:31;11.48;;;10.48;;
34072;SDS011;20346;52.702;16.886;2022-09-09T04:52:17;16.62;;;10.20;;
34072;SDS011;20346;52.702;16.886;2022-09-09T04:55:02;10.58;;;9.70;;
34072;SDS011;20346;52.702;16.886;2022-09-09T04:57:47;14.47;;;12.37;;
34072;SDS011;20346;52.702;16.886;2022-09-09T05:00:33;12.50;;;11.35;;
34072;SDS011;20346;52.702;16.886;2022-09-09T05:03:21;12.58;;;11.38;;
34072;SDS011;20346;52.702;16.886;2022-09-09T05:06:07;12.07;;;10.85;;
34072;SDS011;20346;52.702;16.886;2022-09-09T05:08:54;13.30;;;11.22;;
34072;SDS011;20346;52.702;16.886;2022-09-09T05:11:39;13.32;;;12.33;;
34072;SDS011;20346;52.702;16.886;2022-09-09T05:14:26;14.73;;;13.18;;
34072;SDS011;20346;52.702;16.886;2022-09-09T05:17:11;13.43;;;12.23;;
34072;SDS011;20346;52.702;16.886;2022-09-09T05:19:57;16.35;;;14.93;;
34072;SDS011;20346;52.702;16.886;2022-09-09T05:22:42;15.48;;;14.13;;
34072;SDS011;20346;52.702;16.886;2022-09-09T05:25:27;17.20;;;15.70;;
34072;SDS011;20346;52.702;16.886;2022-09-09T05:28:12;16.52;;;14.93;;
34072;SDS011;20346;52.702;16.886;2022-09-09T05:30:58;17.02;;;15.43;;
34072;SDS011;20346;52.702;16.886;2022-09-09T05:33:47;16.30;;;14.95;;
34072;SDS011;20346;52.702;16.886;2022-09-09T05:36:35;16.07;;;14.65;;
34072;SDS011;20346;52.702;16.886;2022-09-09T05:39:21;15.83;;;14.53;;
34072;SDS011;20346;52.702;16.886;2022-09-09T05:42:06;16.70;;;15.20;;
34072;SDS011;20346;52.702;16.886;2022-09-09T05:44:51;17.25;;;15.53;;
34072;SDS011;20346;52.702;16.886;2022-09-09T05:50:22;14.50;;;13.03;;
34072;SDS011;20346;52.702;16.886;2022-09-09T05:53:07;15.30;;;13.98;;
34072;SDS011;20346;52.702;16.886;2022-09-09T05:56:03;16.10;;;14.55;;
34072;SDS011;20346;52.702;16.886;2022-09-09T05:58:56;15.53;;;14.13;;
34072;SDS011;20346;52.702;16.886;2022-09-09T06:01:41;14.45;;;13.25;;
34072;SDS011;20346;52.702;16.886;2022-09-09T06:04:26;15.55;;;14.07;;
34072;SDS011;20346;52.702;16.886;2022-09-09T06:07:11;16.52;;;14.85;;
34072;SDS011;20346;52.702;16.886;2022-09-09T06:09:59;15.38;;;14.07;;
34072;SDS011;20346;52.702;16.886;2022-09-09T06:12:45;16.00;;;14.63;;
34072;SDS011;20346;52.702;16.886;2022-09-09T06:15:30;15.80;;;14.40;;
34072;SDS011;20346;52.702;16.886;2022-09-09T06:18:16;14.95;;;13.65;;
34072;SDS011;20346;52.702;16.886;2022-09-09T06:21:03;15.65;;;13.72;;
34072;SDS011;20346;52.702;16.886;2022-09-09T06:23:52;13.32;;;12.28;;
34072;SDS011;20346;52.702;16.886;2022-09-09T06:26:37;13.50;;;12.13;;
34072;SDS011;20346;52.702;16.886;2022-09-09T06:29:26;13.72;;;12.60;;
34072;SDS011;20346;52.702;16.886;2022-09-09T06:32:11;14.00;;;12.73;;
34072;SDS011;20346;52.702;16.886;2022-09-09T06:34:56;13.95;;;12.73;;
34072;SDS011;20346;52.702;16.886;2022-09-09T06:37:44;13.00;;;11.80;;
34072;SDS011;20346;52.702;16.886;2022-09-09T06:40:31;12.95;;;11.85;;
34072;SDS011;20346;52.702;16.886;2022-09-09T06:43:16;12.00;;;11.08;;
34072;SDS011;20346;52.702;16.886;2022-09-09T06:46:16;12.15;;;11.08;;
34072;SDS011;20346;52.702;16.886;2022-09-09T06:49:07;12.33;;;11.30;;
34072;SDS011;20346;52.702;16.886;2022-09-09T06:54:38;11.50;;;10.53;;
34072;SDS011;20346;52.702;16.886;2022-09-09T06:57:23;12.00;;;10.45;;
34072;SDS011;20346;52.702;16.886;2022-09-09T07:00:08;11.83;;;10.63;;
34072;SDS011;20346;52.702;16.886;2022-09-09T07:02:55;12.47;;;11.45;;
34072;SDS011;20346;52.702;16.886;2022-09-09T07:05:40;11.63;;;10.72;;
34072;SDS011;20346;52.702;16.886;2022-09-09T07:08:25;12.10;;;11.20;;
34072;SDS011;20346;52.702;16.886;2022-09-09T07:11:10;12.00;;;10.85;;
34072;SDS011;20346;52.702;16.886;2022-09-09T07:13:56;11.78;;;10.88;;
34072;SDS011;20346;52.702;16.886;2022-09-09T07:16:44;11.83;;;10.55;;
34072;SDS011;20346;52.702;16.886;2022-09-09T07:22:14;11.00;;;10.10;;
34072;SDS011;20346;52.702;16.886;2022-09-09T07:24:59;11.90;;;10.98;;
34072;SDS011;20346;52.702;16.886;2022-09-09T07:27:46;12.58;;;11.48;;
34072;SDS011;20346;52.702;16.886;2022-09-09T07:30:32;9.93;;;9.03;;
34072;SDS011;20346;52.702;16.886;2022-09-09T07:33:17;10.85;;;10.05;;
34072;SDS011;20346;52.702;16.886;2022-09-09T07:38:57;10.05;;;8.68;;
34072;SDS011;20346;52.702;16.886;2022-09-09T07:41:47;9.10;;;8.43;;
34072;SDS011;20346;52.702;16.886;2022-09-09T07:44:31;9.78;;;8.98;;
34072;SDS011;20346;52.702;16.886;2022-09-09T07:47:18;9.20;;;8.60;;
34072;SDS011;20346;52.702;16.886;2022-09-09T07:53:07;9.93;;;8.08;;
34072;SDS011;20346;52.702;16.886;2022-09-09T07:55:53;9.65;;;8.75;;
34072;SDS011;20346;52.702;16.886;2022-09-09T07:58:39;10.58;;;9.80;;
34072;SDS011;20346;52.702;16.886;2022-09-09T08:01:30;12.23;;;11.22;;
34072;SDS011;20346;52.702;16.886;2022-09-09T08:04:15;12.10;;;10.98;;
34072;SDS011;20346;52.702;16.886;2022-09-09T08:07:02;12.03;;;11.03;;
34072;SDS011;20346;52.702;16.886;2022-09-09T08:09:48;10.60;;;9.80;;
34072;SDS011;20346;52.702;16.886;2022-09-09T08:12:33;10.08;;;9.35;;
34072;SDS011;20346;52.702;16.886;2022-09-09T08:15:18;9.63;;;8.93;;
34072;SDS011;20346;52.702;16.886;2022-09-09T08:18:03;9.80;;;9.03;;
34072;SDS011;20346;52.702;16.886;2022-09-09T08:20:48;11.08;;;10.18;;
34072;SDS011;20346;52.702;16.886;2022-09-09T08:23:33;11.70;;;10.70;;
34072;SDS011;20346;52.702;16.886;2022-09-09T08:26:19;10.28;;;9.43;;
34072;SDS011;20346;52.702;16.886;2022-09-09T08:29:07;9.78;;;9.08;;
34072;SDS011;20346;52.702;16.886;2022-09-09T08:31:56;10.53;;;9.73;;
34072;SDS011;20346;52.702;16.886;2022-09-09T08:34:43;10.58;;;9.78;;
34072;SDS011;20346;52.702;16.886;2022-09-09T08:37:28;10.30;;;9.45;;
34072;SDS011;20346;52.702;16.886;2022-09-09T08:40:17;10.65;;;9.65;;
34072;SDS011;20346;52.702;16.886;2022-09-09T08:43:03;11.45;;;10.35;;
34072;SDS011;20346;52.702;16.886;2022-09-09T08:51:46;8.23;;;7.62;;
34072;SDS011;20346;52.702;16.886;2022-09-09T08:54:33;9.20;;;8.35;;
34072;SDS011;20346;52.702;16.886;2022-09-09T08:57:25;8.03;;;7.42;;
34072;SDS011;20346;52.702;16.886;2022-09-09T09:00:12;8.58;;;7.95;;
34072;SDS011;20346;52.702;16.886;2022-09-09T09:03:15;9.40;;;8.70;;
34072;SDS011;20346;52.702;16.886;2022-09-09T09:09:39;8.00;;;7.45;;
34072;SDS011;20346;52.702;16.886;2022-09-09T09:12:31;8.05;;;7.28;;
34072;SDS011;20346;52.702;16.886;2022-09-09T09:15:30;8.63;;;7.92;;
34072;SDS011;20346;52.702;16.886;2022-09-09T09:18:19;8.53;;;7.92;;
34072;SDS011;20346;52.702;16.886;2022-09-09T09:21:10;9.15;;;8.45;;
34072;SDS011;20346;52.702;16.886;2022-09-09T09:23:56;8.08;;;7.37;;
34072;SDS011;20346;52.702;16.886;2022-09-09T09:26:43;7.92;;;7.42;;
34072;SDS011;20346;52.702;16.886;2022-09-09T09:29:28;8.70;;;8.10;;
34072;SDS011;20346;52.702;16.886;2022-09-09T09:32:14;8.25;;;7.62;;
34072;SDS011;20346;52.702;16.886;2022-09-09T09:35:04;11.85;;;8.03;;
34072;SDS011;20346;52.702;16.886;2022-09-09T09:37:52;7.67;;;7.08;;
34072;SDS011;20346;52.702;16.886;2022-09-09T09:40:47;9.65;;;6.12;;
34072;SDS011;20346;52.702;16.886;2022-09-09T09:43:42;8.80;;;8.10;;
34072;SDS011;20346;52.702;16.886;2022-09-09T09:46:31;7.95;;;7.35;;
34072;SDS011;20346;52.702;16.886;2022-09-09T09:49:16;8.63;;;7.92;;
34072;SDS011;20346;52.702;16.886;2022-09-09T09:52:02;8.47;;;7.87;;
34072;SDS011;20346;52.702;16.886;2022-09-09T09:54:50;7.75;;;7.05;;
34072;SDS011;20346;52.702;16.886;2022-09-09T09:57:37;7.58;;;6.95;;
34072;SDS011;20346;52.702;16.886;2022-09-09T10:00:22;7.23;;;6.63;;
34072;SDS011;20346;52.702;16.886;2022-09-09T10:03:22;6.28;;;5.78;;
34072;SDS011;20346;52.702;16.886;2022-09-09T10:06:15;6.47;;;5.92;;
34072;SDS011;20346;52.702;16.886;2022-09-09T10:09:01;6.95;;;6.25;;
34072;SDS011;20346;52.702;16.886;2022-09-09T10:11:55;7.42;;;6.80;;
34072;SDS011;20346;52.702;16.886;2022-09-09T10:21:36;11.78;;;8.83;;
34072;SDS011;20346;52.702;16.886;2022-09-09T10:31:18;10.58;;;9.50;;
34072;SDS011;20346;52.702;16.886;2022-09-09T10:41:26;8.93;;;8.13;;
34072;SDS011;20346;52.702;16.886;2022-09-09T10:51:04;7.87;;;6.28;;
34072;SDS011;20346;52.702;16.886;2022-09-09T10:57:46;5.22;;;4.75;;
34072;SDS011;20346;52.702;16.886;2022-09-09T11:00:49;5.23;;;4.73;;
34072;SDS011;20346;52.702;16.886;2022-09-09T11:03:47;5.42;;;5.00;;
34072;SDS011;20346;52.702;16.886;2022-09-09T11:06:40;7.37;;;5.05;;
34072;SDS011;20346;52.702;16.886;2022-09-09T11:09:31;4.90;;;4.42;;
34072;SDS011;20346;52.702;16.886;2022-09-09T11:12:26;5.30;;;4.55;;
34072;SDS011;20346;52.702;16.886;2022-09-09T11:15:41;4.97;;;4.50;;
34072;SDS011;20346;52.702;16.886;2022-09-09T11:18:36;5.12;;;4.62;;
34072;SDS011;20346;52.702;16.886;2022-09-09T11:21:37;5.08;;;4.58;;
34072;SDS011;20346;52.702;16.886;2022-09-09T11:24:35;7.22;;;4.80;;
34072;SDS011;20346;52.702;16.886;2022-09-09T11:27:43;6.53;;;6.00;;
34072;SDS011;20346;52.702;16.886;2022-09-09T11:37:36;5.83;;;5.00;;
34072;SDS011;20346;52.702;16.886;2022-09-09T11:41:00;5.75;;;5.20;;
34072;SDS011;20346;52.702;16.886;2022-09-09T11:43:54;5.60;;;5.15;;
34072;SDS011;20346;52.702;16.886;2022-09-09T11:46:39;5.60;;;5.03;;
34072;SDS011;20346;52.702;16.886;2022-09-09T11:52:35;5.10;;;4.65;;
34072;SDS011;20346;52.702;16.886;2022-09-09T11:55:26;5.22;;;4.72;;
34072;SDS011;20346;52.702;16.886;2022-09-09T11:58:18;4.58;;;4.17;;
34072;SDS011;20346;52.702;16.886;2022-09-09T12:01:16;4.70;;;4.25;;
34072;SDS011;20346;52.702;16.886;2022-09-09T12:04:17;2.25;;;1.37;;
34072;SDS011;20346;52.702;16.886;2022-09-09T12:13:24;2.87;;;0.90;;
34072;SDS011;20346;52.702;16.886;2022-09-09T12:16:37;2.35;;;1.25;;
34072;SDS011;20346;52.702;16.886;2022-09-09T12:19:27;3.10;;;0.75;;
34072;SDS011;20346;52.702;16.886;2022-09-09T12:25:26;1.27;;;0.75;;
34072;SDS011;20346;52.702;16.886;2022-09-09T12:28:39;1.90;;;0.80;;
34072;SDS011;20346;52.702;16.886;2022-09-09T12:31:54;1.32;;;0.55;;
34072;SDS011;20346;52.702;16.886;2022-09-09T12:34:53;1.12;;;0.50;;
34072;SDS011;20346;52.702;16.886;2022-09-09T12:37:42;2.90;;;1.00;;
34072;SDS011;20346;52.702;16.886;2022-09-09T12:40:53;2.77;;;0.98;;
34072;SDS011;20346;52.702;16.886;2022-09-09T12:43:43;2.47;;;0.80;;
34072;SDS011;20346;52.702;16.886;2022-09-09T12:46:44;1.30;;;0.85;;
34072;SDS011;20346;52.702;16.886;2022-09-09T12:49:43;1.55;;;0.60;;
34072;SDS011;20346;52.702;16.886;2022-09-09T12:52:39;2.10;;;0.85;;
34072;SDS011;20346;52.702;16.886;2022-09-09T12:55:35;2.72;;;0.50;;
34072;SDS011;20346;52.702;16.886;2022-09-09T13:01:32;1.40;;;0.90;;
34072;SDS011;20346;52.702;16.886;2022-09-09T13:04:19;1.15;;;0.60;;
34072;SDS011;20346;52.702;16.886;2022-09-09T13:07:08;1.40;;;0.88;;
34072;SDS011;20346;52.702;16.886;2022-09-09T13:09:55;1.62;;;0.62;;
34072;SDS011;20346;52.702;16.886;2022-09-09T13:12:41;1.22;;;0.80;;
34072;SDS011;20346;52.702;16.886;2022-09-09T13:15:28;1.12;;;0.60;;
34072;SDS011;20346;52.702;16.886;2022-09-09T13:18:14;3.15;;;0.80;;
34072;SDS011;20346;52.702;16.886;2022-09-09T13:21:01;2.85;;;0.62;;
34072;SDS011;20346;52.702;16.886;2022-09-09T13:23:50;1.87;;;0.75;;
34072;SDS011;20346;52.702;16.886;2022-09-09T13:26:36;1.57;;;0.70;;
34072;SDS011;20346;52.702;16.886;2022-09-09T13:29:22;3.70;;;0.70;;
34072;SDS011;20346;52.702;16.886;2022-09-09T13:32:18;1.50;;;0.70;;
34072;SDS011;20346;52.702;16.886;2022-09-09T13:35:01;2.87;;;0.68;;
34072;SDS011;20346;52.702;16.886;2022-09-09T13:37:46;1.50;;;0.82;;
34072;SDS011;20346;52.702;16.886;2022-09-09T13:40:31;3.08;;;1.00;;
34072;SDS011;20346;52.702;16.886;2022-09-09T13:43:19;1.65;;;0.80;;
34072;SDS011;20346;52.702;16.886;2022-09-09T13:46:22;4.15;;;0.80;;
34072;SDS011;20346;52.702;16.886;2022-09-09T13:49:24;1.15;;;0.70;;
34072;SDS011;20346;52.702;16.886;2022-09-09T13:52:14;3.52;;;1.12;;
34072;SDS011;20346;52.702;16.886;2022-09-09T13:55:02;3.75;;;0.75;;
34072;SDS011;20346;52.702;16.886;2022-09-09T13:57:52;5.17;;;0.68;;
34072;SDS011;20346;52.702;16.886;2022-09-09T14:00:39;5.15;;;1.52;;
34072;SDS011;20346;52.702;16.886;2022-09-09T14:03:24;2.00;;;0.78;;
34072;SDS011;20346;52.702;16.886;2022-09-09T14:06:12;5.75;;;0.80;;
34072;SDS011;20346;52.702;16.886;2022-09-09T14:08:57;3.67;;;0.93;;
34072;SDS011;20346;52.702;16.886;2022-09-09T14:11:43;1.75;;;0.80;;
34072;SDS011;20346;52.702;16.886;2022-09-09T14:14:31;2.50;;;0.70;;
34072;SDS011;20346;52.702;16.886;2022-09-09T14:17:16;3.45;;;1.00;;
34072;SDS011;20346;52.702;16.886;2022-09-09T14:20:06;2.55;;;0.70;;
34072;SDS011;20346;52.702;16.886;2022-09-09T14:22:51;0.80;;;0.47;;
34072;SDS011;20346;52.702;16.886;2022-09-09T14:25:38;1.22;;;0.70;;
34072;SDS011;20346;52.702;16.886;2022-09-09T14:28:25;1.85;;;0.60;;
34072;SDS011;20346;52.702;16.886;2022-09-09T14:31:12;3.08;;;0.80;;
34072;SDS011;20346;52.702;16.886;2022-09-09T14:33:58;2.33;;;0.68;;
34072;SDS011;20346;52.702;16.886;2022-09-09T14:36:43;1.42;;;0.70;;
34072;SDS011;20346;52.702;16.886;2022-09-09T14:39:28;1.40;;;0.70;;
34072;SDS011;20346;52.702;16.886;2022-09-09T14:42:14;1.93;;;1.13;;
34072;SDS011;20346;52.702;16.886;2022-09-09T14:44:59;2.17;;;0.78;;
34072;SDS011;20346;52.702;16.886;2022-09-09T14:47:45;1.65;;;0.90;;
34072;SDS011;20346;52.702;16.886;2022-09-09T14:50:30;1.30;;;0.72;;
34072;SDS011;20346;52.702;16.886;2022-09-09T14:53:16;0.90;;;0.50;;
34072;SDS011;20346;52.702;16.886;2022-09-09T14:56:10;2.87;;;0.80;;
34072;SDS011;20346;52.702;16.886;2022-09-09T14:58:54;1.47;;;0.80;;
34072;SDS011;20346;52.702;16.886;2022-09-09T15:01:40;1.60;;;0.57;;
34072;SDS011;20346;52.702;16.886;2022-09-09T15:04:25;2.67;;;0.80;;
34072;SDS011;20346;52.702;16.886;2022-09-09T15:07:11;2.92;;;0.68;;
34072;SDS011;20346;52.702;16.886;2022-09-09T15:09:56;3.12;;;0.80;;
34072;SDS011;20346;52.702;16.886;2022-09-09T15:12:41;5.53;;;0.57;;
34072;SDS011;20346;52.702;16.886;2022-09-09T15:15:27;1.50;;;0.90;;
34072;SDS011;20346;52.702;16.886;2022-09-09T15:18:13;1.67;;;0.80;;
34072;SDS011;20346;52.702;16.886;2022-09-09T15:20:59;2.55;;;0.80;;
34072;SDS011;20346;52.702;16.886;2022-09-09T15:23:47;2.47;;;0.80;;
34072;SDS011;20346;52.702;16.886;2022-09-09T15:26:32;2.42;;;0.93;;
34072;SDS011;20346;52.702;16.886;2022-09-09T15:29:19;1.40;;;0.85;;
34072;SDS011;20346;52.702;16.886;2022-09-09T15:32:04;1.67;;;0.70;;
34072;SDS011;20346;52.702;16.886;2022-09-09T15:34:49;2.80;;;1.07;;
34072;SDS011;20346;52.702;16.886;2022-09-09T15:37:35;1.55;;;0.90;;
34072;SDS011;20346;52.702;16.886;2022-09-09T15:40:20;2.25;;;0.80;;
34072;SDS011;20346;52.702;16.886;2022-09-09T15:43:05;2.22;;;0.95;;
34072;SDS011;20346;52.702;16.886;2022-09-09T15:45:52;2.05;;;0.85;;
34072;SDS011;20346;52.702;16.886;2022-09-09T15:48:41;2.02;;;0.72;;
34072;SDS011;20346;52.702;16.886;2022-09-09T15:51:28;3.37;;;0.80;;
34072;SDS011;20346;52.702;16.886;2022-09-09T15:54:18;2.25;;;0.88;;
34072;SDS011;20346;52.702;16.886;2022-09-09T15:57:04;2.20;;;0.90;;
34072;SDS011;20346;52.702;16.886;2022-09-09T15:59:52;2.87;;;0.72;;
34072;SDS011;20346;52.702;16.886;2022-09-09T16:02:36;1.90;;;0.78;;
34072;SDS011;20346;52.702;16.886;2022-09-09T16:05:21;2.85;;;0.80;;
34072;SDS011;20346;52.702;16.886;2022-09-09T16:08:06;1.70;;;0.80;;
34072;SDS011;20346;52.702;16.886;2022-09-09T16:10:51;1.82;;;0.85;;
34072;SDS011;20346;52.702;16.886;2022-09-09T16:13:36;1.95;;;0.70;;
34072;SDS011;20346;52.702;16.886;2022-09-09T16:16:24;2.35;;;1.05;;
34072;SDS011;20346;52.702;16.886;2022-09-09T16:19:12;1.57;;;0.80;;
34072;SDS011;20346;52.702;16.886;2022-09-09T16:21:57;0.98;;;0.40;;
34072;SDS011;20346;52.702;16.886;2022-09-09T16:24:42;1.70;;;0.78;;
34072;SDS011;20346;52.702;16.886;2022-09-09T16:30:13;3.58;;;0.72;;
34072;SDS011;20346;52.702;16.886;2022-09-09T16:32:58;0.78;;;0.70;;
34072;SDS011;20346;52.702;16.886;2022-09-09T16:35:43;1.77;;;0.70;;
34072;SDS011;20346;52.702;16.886;2022-09-09T16:38:29;3.83;;;0.90;;
34072;SDS011;20346;52.702;16.886;2022-09-09T16:41:14;1.22;;;0.62;;
34072;SDS011;20346;52.702;16.886;2022-09-09T16:44:00;4.70;;;1.05;;
34072;SDS011;20346;52.702;16.886;2022-09-09T16:46:48;2.05;;;1.00;;
34072;SDS011;20346;52.702;16.886;2022-09-09T16:49:35;1.55;;;1.00;;
34072;SDS011;20346;52.702;16.886;2022-09-09T16:52:20;1.70;;;0.85;;
34072;SDS011;20346;52.702;16.886;2022-09-09T16:55:06;5.08;;;0.80;;
34072;SDS011;20346;52.702;16.886;2022-09-09T16:57:53;1.60;;;0.88;;
34072;SDS011;20346;52.702;16.886;2022-09-09T17:00:38;3.33;;;1.10;;
34072;SDS011;20346;52.702;16.886;2022-09-09T17:03:23;2.20;;;0.82;;
34072;SDS011;20346;52.702;16.886;2022-09-09T17:06:10;1.50;;;0.90;;
34072;SDS011;20346;52.702;16.886;2022-09-09T17:08:57;1.37;;;0.70;;
34072;SDS011;20346;52.702;16.886;2022-09-09T17:11:45;2.92;;;1.05;;
34072;SDS011;20346;52.702;16.886;2022-09-09T17:14:31;1.30;;;0.90;;
34072;SDS011;20346;52.702;16.886;2022-09-09T17:17:16;2.60;;;0.80;;
34072;SDS011;20346;52.702;16.886;2022-09-09T17:20:02;2.40;;;1.00;;
34072;SDS011;20346;52.702;16.886;2022-09-09T17:22:49;3.60;;;1.12;;
34072;SDS011;20346;52.702;16.886;2022-09-09T17:25:35;4.72;;;0.90;;
34072;SDS011;20346;52.702;16.886;2022-09-09T17:28:20;1.77;;;0.95;;
34072;SDS011;20346;52.702;16.886;2022-09-09T17:33:52;3.40;;;1.10;;
34072;SDS011;20346;52.702;16.886;2022-09-09T17:36:38;2.07;;;1.00;;
34072;SDS011;20346;52.702;16.886;2022-09-09T17:39:24;2.10;;;1.00;;
34072;SDS011;20346;52.702;16.886;2022-09-09T17:42:09;3.05;;;2.10;;
34072;SDS011;20346;52.702;16.886;2022-09-09T17:44:54;5.90;;;1.90;;
34072;SDS011;20346;52.702;16.886;2022-09-09T17:47:39;4.08;;;1.75;;
34072;SDS011;20346;52.702;16.886;2022-09-09T17:50:26;3.80;;;2.30;;
34072;SDS011;20346;52.702;16.886;2022-09-09T17:53:11;5.30;;;2.85;;
34072;SDS011;20346;52.702;16.886;2022-09-09T17:56:01;4.05;;;2.40;;
34072;SDS011;20346;52.702;16.886;2022-09-09T17:58:49;8.28;;;2.45;;
34072;SDS011;20346;52.702;16.886;2022-09-09T18:01:35;3.42;;;1.37;;
34072;SDS011;20346;52.702;16.886;2022-09-09T18:04:23;4.60;;;2.22;;
34072;SDS011;20346;52.702;16.886;2022-09-09T18:07:08;4.47;;;2.05;;
34072;SDS011;20346;52.702;16.886;2022-09-09T18:09:54;8.28;;;3.50;;
34072;SDS011;20346;52.702;16.886;2022-09-09T18:12:39;14.83;;;7.47;;
34072;SDS011;20346;52.702;16.886;2022-09-09T18:15:25;14.68;;;8.30;;
34072;SDS011;20346;52.702;16.886;2022-09-09T18:18:10;14.10;;;7.65;;
34072;SDS011;20346;52.702;16.886;2022-09-09T18:20:58;22.42;;;9.70;;
34072;SDS011;20346;52.702;16.886;2022-09-09T18:23:48;17.57;;;8.75;;
34072;SDS011;20346;52.702;16.886;2022-09-09T18:29:21;20.32;;;7.05;;
34072;SDS011;20346;52.702;16.886;2022-09-09T18:32:08;15.55;;;6.97;;
34072;SDS011;20346;52.702;16.886;2022-09-09T18:34:53;16.97;;;7.55;;